Lincoln Airport Lincoln US
ICAO: KLNK
IATA: LNK
Category: Medium
Scheduled Services: Yes

Elevation: 1219 ft
TransAlt. 18000 ft.

Airport Communications:
APP/DEP:124
ATIS:118.05
CLNC DEL:120.7
CTAF:118.5
GND:121.9
ARNG OPS:123.075
ANG OPS:25.96
COLUMBUS RDO:122.65
TWR:118.5
UNICOM:122.95

KLNK Zoom In..

If you have problems with the map follow the link
https://www.worldairports.se/pages/airport.php?
ICAO=KLNK

Runways:

(A) RW 14 length 8649 ft width 150 ft
---- / hdg 139

(B) RW 17 length 5800 ft width 100 ft
---- / hdg 174

(C) RW 18 length 12901 ft width 200 ft
ILS 111.10 / hdg 174

(D) RW 32 length 8649 ft width 150 ft
---- / hdg 319

(E) RW 35 length 5800 ft width 100 ft
---- / hdg 354

(F) RW 36 length 12901 ft width 200 ft
ILS 109.90 / hdg 354

Location; KLNK
Day. 24 / Time. 11.39 Zulu
* Altimeter: 29.90
* Temperature: 09° c. 48.2°f.
* Wind from: 050° Speed 04 kn.
Dewpoint: 08° c.
Visibility: 3 Statute Miles.
Clouds: Few 900 ft.
Clouds: Broken 2400 ft.
Clouds: Overcast 4100 ft.
Conditions: Light Rain.Conditions: Mist.

KLNK 241139Z 05004KT 3SM -RA BR FEW009 BKN024 OVC041 09/08 A2990 RMK AO2 RAB15E25B36 P0000 T00890083


Wind From 050°
Speed 04 kn.

 
 
jpsmedia.com for Web Design worldairports.se 2019   terms of use